sensor_id;sensor_type;location;lat;lon;timestamp;temperature;humidity
3071;DHT22;1546;47.208;9.038;2023-09-19T00:01:39;17.10;99.90
3071;DHT22;1546;47.208;9.038;2023-09-19T00:04:07;17.20;99.90
3071;DHT22;1546;47.208;9.038;2023-09-19T00:06:35;17.10;99.90
3071;DHT22;1546;47.208;9.038;2023-09-19T00:09:02;17.00;99.90
3071;DHT22;1546;47.208;9.038;2023-09-19T00:11:29;17.20;99.90
3071;DHT22;1546;47.208;9.038;2023-09-19T00:13:56;17.40;99.90
3071;DHT22;1546;47.208;9.038;2023-09-19T00:16:24;17.40;99.90
3071;DHT22;1546;47.208;9.038;2023-09-19T00:18:52;17.50;99.90
3071;DHT22;1546;47.208;9.038;2023-09-19T00:21:20;17.40;99.90
3071;DHT22;1546;47.208;9.038;2023-09-19T00:23:47;17.30;99.90
3071;DHT22;1546;47.208;9.038;2023-09-19T00:26:14;17.30;99.90
3071;DHT22;1546;47.208;9.038;2023-09-19T00:28:43;17.20;99.90
3071;DHT22;1546;47.208;9.038;2023-09-19T00:31:10;17.20;99.90
3071;DHT22;1546;47.208;9.038;2023-09-19T00:33:37;17.10;99.90
3071;DHT22;1546;47.208;9.038;2023-09-19T00:36:04;16.90;99.90
3071;DHT22;1546;47.208;9.038;2023-09-19T00:38:32;16.90;99.90
3071;DHT22;1546;47.208;9.038;2023-09-19T00:40:59;16.90;99.90
3071;DHT22;1546;47.208;9.038;2023-09-19T00:43:26;16.80;99.90
3071;DHT22;1546;47.208;9.038;2023-09-19T00:45:54;16.70;99.90
3071;DHT22;1546;47.208;9.038;2023-09-19T00:48:22;16.70;99.90
3071;DHT22;1546;47.208;9.038;2023-09-19T00:50:51;16.60;99.90
3071;DHT22;1546;47.208;9.038;2023-09-19T00:53:21;16.60;99.90
3071;DHT22;1546;47.208;9.038;2023-09-19T00:55:51;16.50;99.90
3071;DHT22;1546;47.208;9.038;2023-09-19T00:58:18;16.50;99.90
3071;DHT22;1546;47.208;9.038;2023-09-19T01:00:47;16.50;99.90
3071;DHT22;1546;47.208;9.038;2023-09-19T01:03:14;16.50;99.90
3071;DHT22;1546;47.208;9.038;2023-09-19T01:05:41;16.50;99.90
3071;DHT22;1546;47.208;9.038;2023-09-19T01:08:08;16.60;99.90
3071;DHT22;1546;47.208;9.038;2023-09-19T01:10:41;16.60;99.90
3071;DHT22;1546;47.208;9.038;2023-09-19T01:13:17;16.60;99.90
3071;DHT22;1546;47.208;9.038;2023-09-19T01:15:51;16.70;99.90
3071;DHT22;1546;47.208;9.038;2023-09-19T01:18:27;16.80;99.90
3071;DHT22;1546;47.208;9.038;2023-09-19T01:21:03;16.90;99.90
3071;DHT22;1546;47.208;9.038;2023-09-19T01:23:44;16.90;99.90
3071;DHT22;1546;47.208;9.038;2023-09-19T01:26:29;16.90;99.90
3071;DHT22;1546;47.208;9.038;2023-09-19T01:29:17;16.90;99.90
3071;DHT22;1546;47.208;9.038;2023-09-19T01:31:58;16.90;99.90
3071;DHT22;1546;47.208;9.038;2023-09-19T01:34:27;16.90;99.90
3071;DHT22;1546;47.208;9.038;2023-09-19T01:36:53;16.90;99.90
3071;DHT22;1546;47.208;9.038;2023-09-19T01:39:20;16.80;99.90
3071;DHT22;1546;47.208;9.038;2023-09-19T01:42:06;16.70;99.90
3071;DHT22;1546;47.208;9.038;2023-09-19T01:44:43;16.60;99.90
3071;DHT22;1546;47.208;9.038;2023-09-19T01:47:18;16.70;99.90
3071;DHT22;1546;47.208;9.038;2023-09-19T01:49:50;16.90;99.90
3071;DHT22;1546;47.208;9.038;2023-09-19T01:52:20;17.00;99.90
3071;DHT22;1546;47.208;9.038;2023-09-19T01:54:50;17.00;99.90
3071;DHT22;1546;47.208;9.038;2023-09-19T01:57:27;17.00;99.90
3071;DHT22;1546;47.208;9.038;2023-09-19T02:00:01;16.90;99.90
3071;DHT22;1546;47.208;9.038;2023-09-19T02:02:34;16.70;99.90
3071;DHT22;1546;47.208;9.038;2023-09-19T02:05:01;16.60;99.90
3071;DHT22;1546;47.208;9.038;2023-09-19T02:07:29;16.50;99.90
3071;DHT22;1546;47.208;9.038;2023-09-19T02:09:57;16.60;99.90
3071;DHT22;1546;47.208;9.038;2023-09-19T02:12:24;16.70;99.90
3071;DHT22;1546;47.208;9.038;2023-09-19T02:14:51;16.80;99.90
3071;DHT22;1546;47.208;9.038;2023-09-19T02:17:18;16.80;99.90
3071;DHT22;1546;47.208;9.038;2023-09-19T02:19:46;16.50;99.90
3071;DHT22;1546;47.208;9.038;2023-09-19T02:22:13;16.40;99.90
3071;DHT22;1546;47.208;9.038;2023-09-19T02:24:41;16.50;99.90
3071;DHT22;1546;47.208;9.038;2023-09-19T02:27:08;16.60;99.90
3071;DHT22;1546;47.208;9.038;2023-09-19T02:29:38;16.70;99.90
3071;DHT22;1546;47.208;9.038;2023-09-19T02:32:05;16.70;99.90
3071;DHT22;1546;47.208;9.038;2023-09-19T02:34:31;16.70;99.90
3071;DHT22;1546;47.208;9.038;2023-09-19T02:37:03;16.90;99.90
3071;DHT22;1546;47.208;9.038;2023-09-19T02:39:31;16.90;99.90
3071;DHT22;1546;47.208;9.038;2023-09-19T02:41:58;16.90;99.90
3071;DHT22;1546;47.208;9.038;2023-09-19T02:44:25;17.00;99.90
3071;DHT22;1546;47.208;9.038;2023-09-19T02:46:53;17.10;99.90
3071;DHT22;1546;47.208;9.038;2023-09-19T02:49:20;17.00;99.90
3071;DHT22;1546;47.208;9.038;2023-09-19T02:51:46;17.00;99.90
3071;DHT22;1546;47.208;9.038;2023-09-19T02:54:15;16.80;99.90
3071;DHT22;1546;47.208;9.038;2023-09-19T02:56:43;16.80;99.90
3071;DHT22;1546;47.208;9.038;2023-09-19T02:59:09;16.90;99.90
3071;DHT22;1546;47.208;9.038;2023-09-19T03:01:36;17.00;99.90
3071;DHT22;1546;47.208;9.038;2023-09-19T03:04:04;17.00;99.90
3071;DHT22;1546;47.208;9.038;2023-09-19T03:06:32;17.10;99.90
3071;DHT22;1546;47.208;9.038;2023-09-19T03:08:59;16.90;99.90
3071;DHT22;1546;47.208;9.038;2023-09-19T03:11:27;16.90;99.90
3071;DHT22;1546;47.208;9.038;2023-09-19T03:13:55;17.00;99.90
3071;DHT22;1546;47.208;9.038;2023-09-19T03:16:22;17.00;99.90
3071;DHT22;1546;47.208;9.038;2023-09-19T03:18:48;17.10;99.90
3071;DHT22;1546;47.208;9.038;2023-09-19T03:21:15;17.10;99.90
3071;DHT22;1546;47.208;9.038;2023-09-19T03:23:43;17.10;99.90
3071;DHT22;1546;47.208;9.038;2023-09-19T03:26:11;17.10;99.90
3071;DHT22;1546;47.208;9.038;2023-09-19T03:28:41;17.10;99.90
3071;DHT22;1546;47.208;9.038;2023-09-19T03:31:09;17.10;99.90
3071;DHT22;1546;47.208;9.038;2023-09-19T03:33:36;17.20;99.90
3071;DHT22;1546;47.208;9.038;2023-09-19T03:36:03;17.30;99.90
3071;DHT22;1546;47.208;9.038;2023-09-19T03:38:31;17.20;99.90
3071;DHT22;1546;47.208;9.038;2023-09-19T03:40:59;17.20;99.90
3071;DHT22;1546;47.208;9.038;2023-09-19T03:43:26;16.90;99.90
3071;DHT22;1546;47.208;9.038;2023-09-19T03:45:54;16.90;99.90
3071;DHT22;1546;47.208;9.038;2023-09-19T03:48:21;17.00;99.90
3071;DHT22;1546;47.208;9.038;2023-09-19T03:50:48;17.00;99.90
3071;DHT22;1546;47.208;9.038;2023-09-19T03:53:15;16.90;99.90
3071;DHT22;1546;47.208;9.038;2023-09-19T03:55:44;16.80;99.90
3071;DHT22;1546;47.208;9.038;2023-09-19T03:58:11;16.80;99.90
3071;DHT22;1546;47.208;9.038;2023-09-19T04:00:38;16.80;99.90
3071;DHT22;1546;47.208;9.038;2023-09-19T04:03:06;16.80;99.90
3071;DHT22;1546;47.208;9.038;2023-09-19T04:05:34;16.80;99.90
3071;DHT22;1546;47.208;9.038;2023-09-19T04:08:00;16.70;99.90
3071;DHT22;1546;47.208;9.038;2023-09-19T04:10:27;16.70;99.90
3071;DHT22;1546;47.208;9.038;2023-09-19T04:12:55;16.70;99.90
3071;DHT22;1546;47.208;9.038;2023-09-19T04:15:23;16.70;99.90
3071;DHT22;1546;47.208;9.038;2023-09-19T04:17:49;16.50;99.90
3071;DHT22;1546;47.208;9.038;2023-09-19T04:20:18;16.40;99.90
3071;DHT22;1546;47.208;9.038;2023-09-19T04:22:46;16.30;99.90
3071;DHT22;1546;47.208;9.038;2023-09-19T04:25:13;16.10;99.90
3071;DHT22;1546;47.208;9.038;2023-09-19T04:27:40;16.10;99.90
3071;DHT22;1546;47.208;9.038;2023-09-19T04:30:08;16.10;99.90
3071;DHT22;1546;47.208;9.038;2023-09-19T04:32:37;16.30;99.90
3071;DHT22;1546;47.208;9.038;2023-09-19T04:35:06;16.40;99.90
3071;DHT22;1546;47.208;9.038;2023-09-19T04:37:37;16.60;99.90
3071;DHT22;1546;47.208;9.038;2023-09-19T04:40:06;16.70;99.90
3071;DHT22;1546;47.208;9.038;2023-09-19T04:42:38;16.80;99.90
3071;DHT22;1546;47.208;9.038;2023-09-19T04:45:06;16.90;99.90
3071;DHT22;1546;47.208;9.038;2023-09-19T04:47:35;17.00;99.90
3071;DHT22;1546;47.208;9.038;2023-09-19T04:50:04;17.10;99.90
3071;DHT22;1546;47.208;9.038;2023-09-19T04:52:31;17.00;99.90
3071;DHT22;1546;47.208;9.038;2023-09-19T04:55:00;16.90;99.90
3071;DHT22;1546;47.208;9.038;2023-09-19T04:57:27;16.80;99.90
3071;DHT22;1546;47.208;9.038;2023-09-19T04:59:53;16.80;99.90
3071;DHT22;1546;47.208;9.038;2023-09-19T05:02:20;16.80;99.90
3071;DHT22;1546;47.208;9.038;2023-09-19T05:04:47;16.80;99.90
3071;DHT22;1546;47.208;9.038;2023-09-19T05:07:14;16.80;99.90
3071;DHT22;1546;47.208;9.038;2023-09-19T05:09:42;16.60;99.90
3071;DHT22;1546;47.208;9.038;2023-09-19T05:12:10;16.80;99.90
3071;DHT22;1546;47.208;9.038;2023-09-19T05:14:37;16.90;99.90
3071;DHT22;1546;47.208;9.038;2023-09-19T05:17:06;16.90;99.90
3071;DHT22;1546;47.208;9.038;2023-09-19T05:19:33;16.80;99.90
3071;DHT22;1546;47.208;9.038;2023-09-19T05:22:00;16.80;99.90
3071;DHT22;1546;47.208;9.038;2023-09-19T05:24:27;16.90;99.90
3071;DHT22;1546;47.208;9.038;2023-09-19T05:26:54;16.90;99.90
3071;DHT22;1546;47.208;9.038;2023-09-19T05:29:23;17.00;99.90
3071;DHT22;1546;47.208;9.038;2023-09-19T05:31:50;17.00;99.90
3071;DHT22;1546;47.208;9.038;2023-09-19T05:34:18;16.90;99.90
3071;DHT22;1546;47.208;9.038;2023-09-19T05:36:46;16.80;99.90
3071;DHT22;1546;47.208;9.038;2023-09-19T05:39:14;16.90;99.90
3071;DHT22;1546;47.208;9.038;2023-09-19T05:41:41;16.90;99.90
3071;DHT22;1546;47.208;9.038;2023-09-19T05:44:08;17.10;99.90
3071;DHT22;1546;47.208;9.038;2023-09-19T05:46:36;17.20;99.90
3071;DHT22;1546;47.208;9.038;2023-09-19T05:49:03;17.30;99.90
3071;DHT22;1546;47.208;9.038;2023-09-19T05:51:30;17.30;99.90
3071;DHT22;1546;47.208;9.038;2023-09-19T05:53:56;17.30;99.90
3071;DHT22;1546;47.208;9.038;2023-09-19T05:56:23;17.30;99.90
3071;DHT22;1546;47.208;9.038;2023-09-19T05:58:50;17.30;99.90
3071;DHT22;1546;47.208;9.038;2023-09-19T06:01:17;17.30;99.90
3071;DHT22;1546;47.208;9.038;2023-09-19T06:03:45;17.40;99.90
3071;DHT22;1546;47.208;9.038;2023-09-19T06:06:13;17.50;99.90
3071;DHT22;1546;47.208;9.038;2023-09-19T06:08:39;17.40;99.90
3071;DHT22;1546;47.208;9.038;2023-09-19T06:11:09;17.30;99.90
3071;DHT22;1546;47.208;9.038;2023-09-19T06:13:36;17.30;99.90
3071;DHT22;1546;47.208;9.038;2023-09-19T06:16:04;17.30;99.90
3071;DHT22;1546;47.208;9.038;2023-09-19T06:18:31;17.20;99.90
3071;DHT22;1546;47.208;9.038;2023-09-19T06:21:00;17.20;99.90
3071;DHT22;1546;47.208;9.038;2023-09-19T06:23:33;17.30;99.90
3071;DHT22;1546;47.208;9.038;2023-09-19T06:25:59;17.40;99.90
3071;DHT22;1546;47.208;9.038;2023-09-19T06:28:26;17.40;99.90
3071;DHT22;1546;47.208;9.038;2023-09-19T06:30:54;17.30;99.90
3071;DHT22;1546;47.208;9.038;2023-09-19T06:33:20;17.40;99.90
3071;DHT22;1546;47.208;9.038;2023-09-19T06:35:48;18.00;99.90
3071;DHT22;1546;47.208;9.038;2023-09-19T06:38:16;17.90;99.90
3071;DHT22;1546;47.208;9.038;2023-09-19T06:40:44;18.00;99.90
3071;DHT22;1546;47.208;9.038;2023-09-19T06:43:11;18.00;99.90
3071;DHT22;1546;47.208;9.038;2023-09-19T06:45:39;18.10;99.90
3071;DHT22;1546;47.208;9.038;2023-09-19T06:48:06;18.20;99.90
3071;DHT22;1546;47.208;9.038;2023-09-19T06:50:35;18.50;99.90
3071;DHT22;1546;47.208;9.038;2023-09-19T06:53:02;18.50;99.90
3071;DHT22;1546;47.208;9.038;2023-09-19T06:55:30;18.50;99.90
3071;DHT22;1546;47.208;9.038;2023-09-19T06:57:57;18.50;99.90
3071;DHT22;1546;47.208;9.038;2023-09-19T07:00:24;18.60;99.90
3071;DHT22;1546;47.208;9.038;2023-09-19T07:02:57;18.50;99.90
3071;DHT22;1546;47.208;9.038;2023-09-19T07:05:26;18.50;99.90
3071;DHT22;1546;47.208;9.038;2023-09-19T07:07:54;18.50;99.90
3071;DHT22;1546;47.208;9.038;2023-09-19T07:10:21;18.50;99.90
3071;DHT22;1546;47.208;9.038;2023-09-19T07:12:55;18.50;99.90
3071;DHT22;1546;47.208;9.038;2023-09-19T07:15:23;18.40;99.90
3071;DHT22;1546;47.208;9.038;2023-09-19T07:17:51;18.40;99.90
3071;DHT22;1546;47.208;9.038;2023-09-19T07:20:19;18.40;99.90
3071;DHT22;1546;47.208;9.038;2023-09-19T07:22:46;18.50;99.90
3071;DHT22;1546;47.208;9.038;2023-09-19T07:25:16;18.40;99.90
3071;DHT22;1546;47.208;9.038;2023-09-19T07:27:43;18.40;99.90
3071;DHT22;1546;47.208;9.038;2023-09-19T07:30:12;18.30;99.90
3071;DHT22;1546;47.208;9.038;2023-09-19T07:32:40;18.10;99.90
3071;DHT22;1546;47.208;9.038;2023-09-19T07:35:07;18.10;99.90
3071;DHT22;1546;47.208;9.038;2023-09-19T07:37:34;18.00;99.90
3071;DHT22;1546;47.208;9.038;2023-09-19T07:40:01;17.80;99.90
3071;DHT22;1546;47.208;9.038;2023-09-19T07:42:32;17.60;99.90
3071;DHT22;1546;47.208;9.038;2023-09-19T07:45:00;17.60;99.90
3071;DHT22;1546;47.208;9.038;2023-09-19T07:47:29;17.60;99.90
3071;DHT22;1546;47.208;9.038;2023-09-19T07:49:57;17.50;99.90
3071;DHT22;1546;47.208;9.038;2023-09-19T07:52:25;17.60;99.90
3071;DHT22;1546;47.208;9.038;2023-09-19T07:54:53;17.50;99.90
3071;DHT22;1546;47.208;9.038;2023-09-19T07:57:20;17.60;99.90
3071;DHT22;1546;47.208;9.038;2023-09-19T07:59:47;17.80;99.90
3071;DHT22;1546;47.208;9.038;2023-09-19T08:02:14;18.10;99.90
3071;DHT22;1546;47.208;9.038;2023-09-19T08:04:43;18.20;99.90
3071;DHT22;1546;47.208;9.038;2023-09-19T08:07:11;18.20;99.90
3071;DHT22;1546;47.208;9.038;2023-09-19T08:09:38;18.30;99.90
3071;DHT22;1546;47.208;9.038;2023-09-19T08:12:06;18.40;99.90
3071;DHT22;1546;47.208;9.038;2023-09-19T08:14:33;18.50;99.90
3071;DHT22;1546;47.208;9.038;2023-09-19T08:17:00;18.70;99.90
3071;DHT22;1546;47.208;9.038;2023-09-19T08:19:27;18.70;99.90
3071;DHT22;1546;47.208;9.038;2023-09-19T08:21:58;18.60;99.90
3071;DHT22;1546;47.208;9.038;2023-09-19T08:24:25;18.70;99.90
3071;DHT22;1546;47.208;9.038;2023-09-19T08:26:54;18.80;99.90
3071;DHT22;1546;47.208;9.038;2023-09-19T08:29:21;18.80;99.90
3071;DHT22;1546;47.208;9.038;2023-09-19T08:31:53;18.90;99.90
3071;DHT22;1546;47.208;9.038;2023-09-19T08:34:20;18.90;99.90
3071;DHT22;1546;47.208;9.038;2023-09-19T08:36:47;19.00;99.90
3071;DHT22;1546;47.208;9.038;2023-09-19T08:39:15;19.10;99.90
3071;DHT22;1546;47.208;9.038;2023-09-19T08:41:44;19.10;99.90
3071;DHT22;1546;47.208;9.038;2023-09-19T08:44:10;19.30;99.90
3071;DHT22;1546;47.208;9.038;2023-09-19T08:46:40;19.60;99.90
3071;DHT22;1546;47.208;9.038;2023-09-19T08:49:11;19.80;99.90
3071;DHT22;1546;47.208;9.038;2023-09-19T08:51:43;19.90;99.90
3071;DHT22;1546;47.208;9.038;2023-09-19T08:54:19;19.70;99.90
3071;DHT22;1546;47.208;9.038;2023-09-19T08:56:50;19.20;99.90
3071;DHT22;1546;47.208;9.038;2023-09-19T08:59:21;19.10;99.90
3071;DHT22;1546;47.208;9.038;2023-09-19T09:01:50;19.30;99.90
3071;DHT22;1546;47.208;9.038;2023-09-19T09:04:19;19.10;99.90
3071;DHT22;1546;47.208;9.038;2023-09-19T09:06:46;19.40;99.90
3071;DHT22;1546;47.208;9.038;2023-09-19T09:09:14;19.80;99.90
3071;DHT22;1546;47.208;9.038;2023-09-19T09:11:42;19.90;99.90
3071;DHT22;1546;47.208;9.038;2023-09-19T09:14:09;20.20;99.90
3071;DHT22;1546;47.208;9.038;2023-09-19T09:16:36;20.30;99.90
3071;DHT22;1546;47.208;9.038;2023-09-19T09:19:04;20.40;99.90
3071;DHT22;1546;47.208;9.038;2023-09-19T09:21:31;20.30;99.90
3071;DHT22;1546;47.208;9.038;2023-09-19T09:24:28;20.20;99.90
3071;DHT22;1546;47.208;9.038;2023-09-19T09:26:57;20.00;99.90
3071;DHT22;1546;47.208;9.038;2023-09-19T09:29:42;19.80;99.90
3071;DHT22;1546;47.208;9.038;2023-09-19T09:32:19;19.70;99.90
3071;DHT22;1546;47.208;9.038;2023-09-19T09:34:49;19.70;99.90
3071;DHT22;1546;47.208;9.038;2023-09-19T09:37:17;19.50;99.90
3071;DHT22;1546;47.208;9.038;2023-09-19T09:39:55;19.40;99.90
3071;DHT22;1546;47.208;9.038;2023-09-19T09:42:32;19.30;99.90
3071;DHT22;1546;47.208;9.038;2023-09-19T09:45:14;19.50;99.90
3071;DHT22;1546;47.208;9.038;2023-09-19T09:47:42;20.10;99.90
3071;DHT22;1546;47.208;9.038;2023-09-19T09:50:26;20.00;99.90
3071;DHT22;1546;47.208;9.038;2023-09-19T09:53:19;20.20;99.90
3071;DHT22;1546;47.208;9.038;2023-09-19T09:56:00;20.40;99.90
3071;DHT22;1546;47.208;9.038;2023-09-19T09:58:32;20.40;99.90
3071;DHT22;1546;47.208;9.038;2023-09-19T10:00:59;20.30;99.90
3071;DHT22;1546;47.208;9.038;2023-09-19T10:03:34;20.50;99.90
3071;DHT22;1546;47.208;9.038;2023-09-19T10:06:10;20.90;99.90
3071;DHT22;1546;47.208;9.038;2023-09-19T10:09:05;21.10;99.90
3071;DHT22;1546;47.208;9.038;2023-09-19T10:11:41;21.10;99.90
3071;DHT22;1546;47.208;9.038;2023-09-19T10:14:09;21.00;99.90
3071;DHT22;1546;47.208;9.038;2023-09-19T10:16:40;20.90;99.90
3071;DHT22;1546;47.208;9.038;2023-09-19T10:19:08;20.90;99.90
3071;DHT22;1546;47.208;9.038;2023-09-19T10:21:36;20.80;99.90
3071;DHT22;1546;47.208;9.038;2023-09-19T10:24:08;20.70;99.90
3071;DHT22;1546;47.208;9.038;2023-09-19T10:26:36;21.00;99.90
3071;DHT22;1546;47.208;9.038;2023-09-19T10:29:06;21.10;99.90
3071;DHT22;1546;47.208;9.038;2023-09-19T10:31:36;21.40;99.90
3071;DHT22;1546;47.208;9.038;2023-09-19T10:34:06;21.40;99.90
3071;DHT22;1546;47.208;9.038;2023-09-19T10:36:36;21.50;99.90
3071;DHT22;1546;47.208;9.038;2023-09-19T10:39:06;21.50;99.90
3071;DHT22;1546;47.208;9.038;2023-09-19T10:41:34;21.40;99.90
3071;DHT22;1546;47.208;9.038;2023-09-19T10:44:03;21.40;99.90
3071;DHT22;1546;47.208;9.038;2023-09-19T10:46:31;21.50;99.90
3071;DHT22;1546;47.208;9.038;2023-09-19T10:48:59;21.50;99.90
3071;DHT22;1546;47.208;9.038;2023-09-19T10:51:29;21.40;99.90
3071;DHT22;1546;47.208;9.038;2023-09-19T10:54:08;21.50;99.90
3071;DHT22;1546;47.208;9.038;2023-09-19T10:56:43;21.50;99.90
3071;DHT22;1546;47.208;9.038;2023-09-19T10:59:13;21.40;99.90
3071;DHT22;1546;47.208;9.038;2023-09-19T11:01:42;21.60;99.90
3071;DHT22;1546;47.208;9.038;2023-09-19T11:04:26;21.90;99.90
3071;DHT22;1546;47.208;9.038;2023-09-19T11:07:03;22.30;99.90
3071;DHT22;1546;47.208;9.038;2023-09-19T11:09:46;22.60;99.90
3071;DHT22;1546;47.208;9.038;2023-09-19T11:12:26;22.50;99.90
3071;DHT22;1546;47.208;9.038;2023-09-19T11:15:07;22.50;99.90
3071;DHT22;1546;47.208;9.038;2023-09-19T11:17:37;22.50;99.90
3071;DHT22;1546;47.208;9.038;2023-09-19T11:20:21;23.20;99.90
3071;DHT22;1546;47.208;9.038;2023-09-19T11:23:17;23.20;99.90
3071;DHT22;1546;47.208;9.038;2023-09-19T11:25:49;23.80;99.90
3071;DHT22;1546;47.208;9.038;2023-09-19T11:28:28;24.50;99.90
3071;DHT22;1546;47.208;9.038;2023-09-19T11:30:56;25.00;97.00
3071;DHT22;1546;47.208;9.038;2023-09-19T11:33:25;25.10;97.60
3071;DHT22;1546;47.208;9.038;2023-09-19T11:36:01;25.10;96.00
3071;DHT22;1546;47.208;9.038;2023-09-19T11:38:59;25.30;96.00
3071;DHT22;1546;47.208;9.038;2023-09-19T11:41:39;25.60;96.20
3071;DHT22;1546;47.208;9.038;2023-09-19T11:44:34;25.60;95.30
3071;DHT22;1546;47.208;9.038;2023-09-19T11:47:05;25.50;95.20
3071;DHT22;1546;47.208;9.038;2023-09-19T11:49:32;25.50;94.20
3071;DHT22;1546;47.208;9.038;2023-09-19T11:52:00;25.70;95.50
3071;DHT22;1546;47.208;9.038;2023-09-19T11:54:31;26.50;94.40
3071;DHT22;1546;47.208;9.038;2023-09-19T11:57:00;27.00;93.40
3071;DHT22;1546;47.208;9.038;2023-09-19T11:59:29;27.40;91.80
3071;DHT22;1546;47.208;9.038;2023-09-19T12:01:57;27.70;92.80
3071;DHT22;1546;47.208;9.038;2023-09-19T12:04:37;28.30;91.40
3071;DHT22;1546;47.208;9.038;2023-09-19T12:07:06;28.70;91.70
3071;DHT22;1546;47.208;9.038;2023-09-19T12:09:38;29.50;89.10
3071;DHT22;1546;47.208;9.038;2023-09-19T12:12:07;29.90;90.40
3071;DHT22;1546;47.208;9.038;2023-09-19T12:14:34;29.80;87.40
3071;DHT22;1546;47.208;9.038;2023-09-19T12:17:01;29.60;88.60
3071;DHT22;1546;47.208;9.038;2023-09-19T12:19:29;29.30;85.70
3071;DHT22;1546;47.208;9.038;2023-09-19T12:21:59;29.60;88.00
3071;DHT22;1546;47.208;9.038;2023-09-19T12:24:29;29.80;85.60
3071;DHT22;1546;47.208;9.038;2023-09-19T12:27:00;29.60;84.20
3071;DHT22;1546;47.208;9.038;2023-09-19T12:29:31;29.30;85.60
3071;DHT22;1546;47.208;9.038;2023-09-19T12:31:59;29.50;86.80
3071;DHT22;1546;47.208;9.038;2023-09-19T12:34:30;29.90;87.50
3071;DHT22;1546;47.208;9.038;2023-09-19T12:37:10;30.50;85.60
3071;DHT22;1546;47.208;9.038;2023-09-19T12:39:39;30.90;82.20
3071;DHT22;1546;47.208;9.038;2023-09-19T12:42:08;31.20;81.20
3071;DHT22;1546;47.208;9.038;2023-09-19T12:44:37;30.80;81.50
3071;DHT22;1546;47.208;9.038;2023-09-19T12:47:09;30.80;81.30
3071;DHT22;1546;47.208;9.038;2023-09-19T12:50:09;30.90;81.40
3071;DHT22;1546;47.208;9.038;2023-09-19T12:52:45;30.60;82.00
3071;DHT22;1546;47.208;9.038;2023-09-19T12:55:23;31.00;83.90
3071;DHT22;1546;47.208;9.038;2023-09-19T12:58:11;31.30;80.90
3071;DHT22;1546;47.208;9.038;2023-09-19T13:00:43;31.60;78.40
3071;DHT22;1546;47.208;9.038;2023-09-19T13:03:15;32.40;79.30
3071;DHT22;1546;47.208;9.038;2023-09-19T13:05:52;32.70;79.00
3071;DHT22;1546;47.208;9.038;2023-09-19T13:08:23;33.00;77.40
3071;DHT22;1546;47.208;9.038;2023-09-19T13:11:08;32.60;76.00
3071;DHT22;1546;47.208;9.038;2023-09-19T13:13:40;32.40;78.50
3071;DHT22;1546;47.208;9.038;2023-09-19T13:16:11;32.50;76.60
3071;DHT22;1546;47.208;9.038;2023-09-19T13:18:44;31.90;80.00
3071;DHT22;1546;47.208;9.038;2023-09-19T13:21:12;32.80;77.20
3071;DHT22;1546;47.208;9.038;2023-09-19T13:23:49;33.10;72.00
3071;DHT22;1546;47.208;9.038;2023-09-19T13:26:16;33.40;74.10
3071;DHT22;1546;47.208;9.038;2023-09-19T13:28:43;33.30;73.50
3071;DHT22;1546;47.208;9.038;2023-09-19T13:31:11;33.40;71.30
3071;DHT22;1546;47.208;9.038;2023-09-19T13:33:43;33.50;70.10
3071;DHT22;1546;47.208;9.038;2023-09-19T13:36:11;33.40;71.20
3071;DHT22;1546;47.208;9.038;2023-09-19T13:38:38;33.00;70.90
3071;DHT22;1546;47.208;9.038;2023-09-19T13:41:05;33.90;68.60
3071;DHT22;1546;47.208;9.038;2023-09-19T13:43:32;33.90;68.50
3071;DHT22;1546;47.208;9.038;2023-09-19T13:45:59;33.20;67.40
3071;DHT22;1546;47.208;9.038;2023-09-19T13:48:27;32.90;67.70
3071;DHT22;1546;47.208;9.038;2023-09-19T13:50:55;33.00;69.90
3071;DHT22;1546;47.208;9.038;2023-09-19T13:53:22;32.80;67.30
3071;DHT22;1546;47.208;9.038;2023-09-19T13:55:51;33.20;68.50
3071;DHT22;1546;47.208;9.038;2023-09-19T13:58:18;33.40;69.50
3071;DHT22;1546;47.208;9.038;2023-09-19T14:00:46;33.60;69.40
3071;DHT22;1546;47.208;9.038;2023-09-19T14:03:13;34.00;65.80
3071;DHT22;1546;47.208;9.038;2023-09-19T14:05:41;33.80;67.80
3071;DHT22;1546;47.208;9.038;2023-09-19T14:08:08;33.80;68.20
3071;DHT22;1546;47.208;9.038;2023-09-19T14:10:35;34.20;69.80
3071;DHT22;1546;47.208;9.038;2023-09-19T14:13:02;35.10;66.80
3071;DHT22;1546;47.208;9.038;2023-09-19T14:15:29;35.30;64.90
3071;DHT22;1546;47.208;9.038;2023-09-19T14:17:56;33.50;64.50
3071;DHT22;1546;47.208;9.038;2023-09-19T14:20:25;32.90;68.30
3071;DHT22;1546;47.208;9.038;2023-09-19T14:22:54;33.20;65.70
3071;DHT22;1546;47.208;9.038;2023-09-19T14:25:20;32.70;67.50
3071;DHT22;1546;47.208;9.038;2023-09-19T14:27:47;32.30;66.30
3071;DHT22;1546;47.208;9.038;2023-09-19T14:30:14;32.60;68.40
3071;DHT22;1546;47.208;9.038;2023-09-19T14:32:41;33.30;68.20
3071;DHT22;1546;47.208;9.038;2023-09-19T14:35:08;32.20;70.20
3071;DHT22;1546;47.208;9.038;2023-09-19T14:37:36;30.40;69.70
3071;DHT22;1546;47.208;9.038;2023-09-19T14:40:06;29.10;72.60
3071;DHT22;1546;47.208;9.038;2023-09-19T14:42:35;27.90;75.60
3071;DHT22;1546;47.208;9.038;2023-09-19T14:45:04;27.00;77.60
3071;DHT22;1546;47.208;9.038;2023-09-19T14:47:31;26.20;80.50
3071;DHT22;1546;47.208;9.038;2023-09-19T14:49:59;25.80;83.50
3071;DHT22;1546;47.208;9.038;2023-09-19T14:52:26;25.40;82.00
3071;DHT22;1546;47.208;9.038;2023-09-19T14:54:54;25.40;83.20
3071;DHT22;1546;47.208;9.038;2023-09-19T14:57:22;25.20;86.00
3071;DHT22;1546;47.208;9.038;2023-09-19T14:59:50;25.20;85.60
3071;DHT22;1546;47.208;9.038;2023-09-19T15:02:17;24.90;86.70
3071;DHT22;1546;47.208;9.038;2023-09-19T15:04:44;24.90;86.50
3071;DHT22;1546;47.208;9.038;2023-09-19T15:07:12;25.10;88.00
3071;DHT22;1546;47.208;9.038;2023-09-19T15:09:40;24.90;87.00
3071;DHT22;1546;47.208;9.038;2023-09-19T15:12:07;24.70;88.10
3071;DHT22;1546;47.208;9.038;2023-09-19T15:14:35;24.50;87.00
3071;DHT22;1546;47.208;9.038;2023-09-19T15:17:02;24.40;88.00
3071;DHT22;1546;47.208;9.038;2023-09-19T15:19:30;23.90;89.10
3071;DHT22;1546;47.208;9.038;2023-09-19T15:21:56;23.50;90.30
3071;DHT22;1546;47.208;9.038;2023-09-19T15:24:23;23.30;90.30
3071;DHT22;1546;47.208;9.038;2023-09-19T15:26:52;23.50;91.40
3071;DHT22;1546;47.208;9.038;2023-09-19T15:29:21;23.40;90.80
3071;DHT22;1546;47.208;9.038;2023-09-19T15:31:49;23.20;90.90
3071;DHT22;1546;47.208;9.038;2023-09-19T15:34:16;23.20;91.00
3071;DHT22;1546;47.208;9.038;2023-09-19T15:36:43;23.00;90.60
3071;DHT22;1546;47.208;9.038;2023-09-19T15:39:11;23.00;91.00
3071;DHT22;1546;47.208;9.038;2023-09-19T15:41:42;23.20;91.20
3071;DHT22;1546;47.208;9.038;2023-09-19T15:44:12;23.20;91.30
3071;DHT22;1546;47.208;9.038;2023-09-19T15:46:39;23.10;90.80
3071;DHT22;1546;47.208;9.038;2023-09-19T15:49:07;23.20;91.20
3071;DHT22;1546;47.208;9.038;2023-09-19T15:51:34;23.30;90.80
3071;DHT22;1546;47.208;9.038;2023-09-19T15:54:08;23.40;91.40
3071;DHT22;1546;47.208;9.038;2023-09-19T15:56:35;23.50;90.50
3071;DHT22;1546;47.208;9.038;2023-09-19T15:59:02;23.50;90.60
3071;DHT22;1546;47.208;9.038;2023-09-19T16:01:29;23.50;90.40
3071;DHT22;1546;47.208;9.038;2023-09-19T16:03:55;23.40;91.90
3071;DHT22;1546;47.208;9.038;2023-09-19T16:06:25;23.30;91.90
3071;DHT22;1546;47.208;9.038;2023-09-19T16:08:53;23.30;93.30
3071;DHT22;1546;47.208;9.038;2023-09-19T16:11:21;23.10;93.60
3071;DHT22;1546;47.208;9.038;2023-09-19T16:13:49;22.90;94.10
3071;DHT22;1546;47.208;9.038;2023-09-19T16:16:17;22.80;94.80
3071;DHT22;1546;47.208;9.038;2023-09-19T16:18:48;22.60;95.50